• Join FlightAware (Why Join?)
  • Login
  • US Flag 
Trick or treat! (Boo!!) 
11:53PM EDT


 

Airport Tracker/Info


-or-


 

Live Flight TrackerFlight Track Log ✈ N917MM ✈ 29-Jun-2012 ✈ KBED - KACK

Flight Track Log - Related Links

Times and Time Zones

All times are in EDT time to prevent confusion due to time zone crossing. See the N917MM flight status page for this flight to view local times or setup timezone preferences in your user account.

Time Position Orientation Groundspeed Altitude Reporting Facility
EDT Latitude Longitude Course Direction KTS MPH feet Rate Location/Type
09:02PM 42.4667 -71.3167 246° West 138 159 1,400  Level Boston TRACON
09:03PM 42.4500 -71.3667 194° South 199 229 3,100 2,280 Climbing Boston TRACON
09:03PM 42.4000 -71.3833 135° Southeast 217 250 5,600 2,040 Climbing Boston TRACON
09:04PM 42.3500 -71.3167 151° Southeast 275 316 7,000 660 Climbing Boston TRACON
09:05PM 42.2833 -71.2667 135° Southeast 259 298 7,000  Level Boston TRACON
09:06PM 42.2333 -71.2000 135° Southeast 255 293 7,000  Level Boston TRACON
09:07PM 42.1833 -71.1333 135° Southeast 257 296 7,000  Level Boston TRACON
09:08PM 42.1333 -71.0667 46° Northeast 261 300 7,000  Level Boston TRACON
09:16PM 42.2992 -70.8335 149° Southeast  Level FlightAware Approximate
09:17PM 42.2460 -70.7896 149° Southeast  Level FlightAware Approximate
09:18PM 42.1928 -70.7458 149° Southeast  Level FlightAware Approximate
09:19PM 42.1396 -70.7021 149° Southeast  Level FlightAware Approximate
09:20PM 42.0864 -70.6584 149° Southeast  Level FlightAware Approximate
09:21PM 42.0331 -70.6148 149° Southeast  Level FlightAware Approximate
09:22PM 41.9798 -70.5713 149° Southeast  Level FlightAware Approximate
09:23PM 41.9266 -70.5279 149° Southeast  Level FlightAware Approximate
09:24PM 41.8732 -70.4845 149° Southeast  Level FlightAware Approximate
09:25PM 41.8199 -70.4412 149° Southeast  Level FlightAware Approximate
09:26PM 41.7666 -70.3980 149° Southeast  Level FlightAware Approximate
09:27PM 41.7132 -70.3548 149° Southeast  Level FlightAware Approximate
09:28PM 41.6599 -70.3118 149° Southeast  Level FlightAware Approximate
09:29PM 41.6065 -70.2687 149° Southeast  Level FlightAware Approximate
09:30PM 41.5531 -70.2258 149° Southeast  Level FlightAware Approximate
09:31PM 41.4997 -70.1829 149° Southeast  Level FlightAware Approximate
09:32PM 41.4462 -70.1401 149° Southeast  Level FlightAware Approximate
09:33PM 41.3928 -70.0974 149° Southeast  Level FlightAware Approximate
09:34PM 41.3393 -70.0548 149° Southeast  Level FlightAware Approximate